sensor_id;sensor_type;location;lat;lon;timestamp;P1;durP1;ratioP1;P2;durP2;ratioP2
68438;SDS011;55421;51.600;5.718;2023-07-31T00:01:09;15.70;;;5.40;;
68438;SDS011;55421;51.600;5.718;2023-07-31T00:03:36;13.20;;;5.10;;
68438;SDS011;55421;51.600;5.718;2023-07-31T00:06:02;13.70;;;4.60;;
68438;SDS011;55421;51.600;5.718;2023-07-31T00:08:29;11.60;;;5.00;;
68438;SDS011;55421;51.600;5.718;2023-07-31T00:10:55;13.00;;;4.80;;
68438;SDS011;55421;51.600;5.718;2023-07-31T00:13:21;13.10;;;4.60;;
68438;SDS011;55421;51.600;5.718;2023-07-31T00:15:48;16.00;;;5.60;;
68438;SDS011;55421;51.600;5.718;2023-07-31T00:18:15;17.30;;;7.00;;
68438;SDS011;55421;51.600;5.718;2023-07-31T00:20:41;12.60;;;5.10;;
68438;SDS011;55421;51.600;5.718;2023-07-31T00:23:08;13.50;;;5.20;;
68438;SDS011;55421;51.600;5.718;2023-07-31T00:25:34;13.70;;;4.90;;
68438;SDS011;55421;51.600;5.718;2023-07-31T00:28:01;17.40;;;5.50;;
68438;SDS011;55421;51.600;5.718;2023-07-31T00:30:27;11.20;;;5.00;;
68438;SDS011;55421;51.600;5.718;2023-07-31T00:32:53;15.50;;;5.20;;
68438;SDS011;55421;51.600;5.718;2023-07-31T00:35:20;16.10;;;4.70;;
68438;SDS011;55421;51.600;5.718;2023-07-31T00:37:46;16.10;;;5.40;;
68438;SDS011;55421;51.600;5.718;2023-07-31T00:40:13;15.50;;;4.60;;
68438;SDS011;55421;51.600;5.718;2023-07-31T00:42:40;13.80;;;4.60;;
68438;SDS011;55421;51.600;5.718;2023-07-31T00:45:07;11.30;;;3.90;;
68438;SDS011;55421;51.600;5.718;2023-07-31T00:47:33;10.70;;;3.90;;
68438;SDS011;55421;51.600;5.718;2023-07-31T00:50:00;11.90;;;4.50;;
68438;SDS011;55421;51.600;5.718;2023-07-31T00:52:27;17.70;;;4.90;;
68438;SDS011;55421;51.600;5.718;2023-07-31T00:54:53;12.90;;;3.70;;
68438;SDS011;55421;51.600;5.718;2023-07-31T00:57:20;15.70;;;4.20;;
68438;SDS011;55421;51.600;5.718;2023-07-31T00:59:46;14.40;;;5.00;;
68438;SDS011;55421;51.600;5.718;2023-07-31T01:02:13;10.20;;;4.00;;
68438;SDS011;55421;51.600;5.718;2023-07-31T01:04:41;12.20;;;3.60;;
68438;SDS011;55421;51.600;5.718;2023-07-31T01:10:20;11.80;;;4.10;;
68438;SDS011;55421;51.600;5.718;2023-07-31T01:12:51;7.40;;;3.40;;
68438;SDS011;55421;51.600;5.718;2023-07-31T01:15:18;11.30;;;4.30;;
68438;SDS011;55421;51.600;5.718;2023-07-31T01:17:47;15.40;;;4.20;;
68438;SDS011;55421;51.600;5.718;2023-07-31T01:20:24;10.50;;;4.40;;
68438;SDS011;55421;51.600;5.718;2023-07-31T01:25:54;10.60;;;3.80;;
68438;SDS011;55421;51.600;5.718;2023-07-31T01:28:29;9.30;;;4.10;;
68438;SDS011;55421;51.600;5.718;2023-07-31T01:31:07;12.40;;;3.50;;
68438;SDS011;55421;51.600;5.718;2023-07-31T01:33:37;11.20;;;3.40;;
68438;SDS011;55421;51.600;5.718;2023-07-31T01:36:04;13.40;;;3.80;;
68438;SDS011;55421;51.600;5.718;2023-07-31T01:38:32;10.00;;;4.10;;
68438;SDS011;55421;51.600;5.718;2023-07-31T01:40:58;13.20;;;3.90;;
68438;SDS011;55421;51.600;5.718;2023-07-31T01:43:24;11.20;;;3.60;;
68438;SDS011;55421;51.600;5.718;2023-07-31T01:45:51;11.70;;;3.30;;
68438;SDS011;55421;51.600;5.718;2023-07-31T01:48:17;10.40;;;3.20;;
68438;SDS011;55421;51.600;5.718;2023-07-31T01:50:46;15.90;;;3.20;;
68438;SDS011;55421;51.600;5.718;2023-07-31T01:53:12;9.00;;;3.50;;
68438;SDS011;55421;51.600;5.718;2023-07-31T01:55:39;6.70;;;3.30;;
68438;SDS011;55421;51.600;5.718;2023-07-31T01:58:06;12.70;;;3.80;;
68438;SDS011;55421;51.600;5.718;2023-07-31T02:00:32;15.40;;;4.00;;
68438;SDS011;55421;51.600;5.718;2023-07-31T02:02:59;12.00;;;3.20;;
68438;SDS011;55421;51.600;5.718;2023-07-31T02:05:26;11.30;;;3.80;;
68438;SDS011;55421;51.600;5.718;2023-07-31T02:07:52;11.40;;;3.90;;
68438;SDS011;55421;51.600;5.718;2023-07-31T02:10:19;9.30;;;3.50;;
68438;SDS011;55421;51.600;5.718;2023-07-31T02:12:45;11.80;;;3.40;;
68438;SDS011;55421;51.600;5.718;2023-07-31T02:15:12;11.20;;;3.40;;
68438;SDS011;55421;51.600;5.718;2023-07-31T02:17:38;9.60;;;3.50;;
68438;SDS011;55421;51.600;5.718;2023-07-31T02:20:05;14.90;;;4.10;;
68438;SDS011;55421;51.600;5.718;2023-07-31T02:22:32;13.70;;;4.10;;
68438;SDS011;55421;51.600;5.718;2023-07-31T02:24:59;9.90;;;3.80;;
68438;SDS011;55421;51.600;5.718;2023-07-31T02:27:25;12.10;;;3.50;;
68438;SDS011;55421;51.600;5.718;2023-07-31T02:29:53;14.20;;;4.20;;
68438;SDS011;55421;51.600;5.718;2023-07-31T02:32:21;11.60;;;3.70;;
68438;SDS011;55421;51.600;5.718;2023-07-31T02:34:47;11.00;;;3.40;;
68438;SDS011;55421;51.600;5.718;2023-07-31T02:37:13;11.30;;;4.20;;
68438;SDS011;55421;51.600;5.718;2023-07-31T02:39:40;11.00;;;4.20;;
68438;SDS011;55421;51.600;5.718;2023-07-31T02:42:07;10.20;;;3.70;;
68438;SDS011;55421;51.600;5.718;2023-07-31T02:44:33;12.50;;;3.70;;
68438;SDS011;55421;51.600;5.718;2023-07-31T02:47:00;11.20;;;3.10;;
68438;SDS011;55421;51.600;5.718;2023-07-31T02:49:26;12.10;;;3.90;;
68438;SDS011;55421;51.600;5.718;2023-07-31T02:51:53;9.60;;;3.60;;
68438;SDS011;55421;51.600;5.718;2023-07-31T02:54:19;9.90;;;3.80;;
68438;SDS011;55421;51.600;5.718;2023-07-31T02:56:48;9.60;;;3.70;;
68438;SDS011;55421;51.600;5.718;2023-07-31T02:59:14;10.30;;;3.40;;
68438;SDS011;55421;51.600;5.718;2023-07-31T03:01:41;12.90;;;4.00;;
68438;SDS011;55421;51.600;5.718;2023-07-31T03:04:07;8.50;;;3.70;;
68438;SDS011;55421;51.600;5.718;2023-07-31T03:06:34;10.80;;;4.10;;
68438;SDS011;55421;51.600;5.718;2023-07-31T03:09:00;13.00;;;4.60;;
68438;SDS011;55421;51.600;5.718;2023-07-31T03:11:26;12.10;;;4.30;;
68438;SDS011;55421;51.600;5.718;2023-07-31T03:13:53;13.00;;;4.20;;
68438;SDS011;55421;51.600;5.718;2023-07-31T03:16:20;11.70;;;3.70;;
68438;SDS011;55421;51.600;5.718;2023-07-31T03:18:46;8.80;;;3.60;;
68438;SDS011;55421;51.600;5.718;2023-07-31T03:21:14;12.20;;;4.20;;
68438;SDS011;55421;51.600;5.718;2023-07-31T03:23:40;10.10;;;3.30;;
68438;SDS011;55421;51.600;5.718;2023-07-31T03:26:07;13.80;;;4.30;;
68438;SDS011;55421;51.600;5.718;2023-07-31T03:28:34;14.00;;;4.50;;
68438;SDS011;55421;51.600;5.718;2023-07-31T03:31:00;9.20;;;3.90;;
68438;SDS011;55421;51.600;5.718;2023-07-31T03:33:27;13.90;;;3.70;;
68438;SDS011;55421;51.600;5.718;2023-07-31T03:35:53;11.00;;;3.60;;
68438;SDS011;55421;51.600;5.718;2023-07-31T03:38:20;9.70;;;3.50;;
68438;SDS011;55421;51.600;5.718;2023-07-31T03:40:47;8.40;;;3.60;;
68438;SDS011;55421;51.600;5.718;2023-07-31T03:43:15;15.50;;;4.10;;
68438;SDS011;55421;51.600;5.718;2023-07-31T03:45:41;10.70;;;3.90;;
68438;SDS011;55421;51.600;5.718;2023-07-31T03:48:08;14.00;;;4.40;;
68438;SDS011;55421;51.600;5.718;2023-07-31T03:50:35;12.10;;;4.10;;
68438;SDS011;55421;51.600;5.718;2023-07-31T03:53:01;9.00;;;3.20;;
68438;SDS011;55421;51.600;5.718;2023-07-31T03:55:28;13.50;;;3.40;;
68438;SDS011;55421;51.600;5.718;2023-07-31T03:57:54;8.30;;;3.20;;
68438;SDS011;55421;51.600;5.718;2023-07-31T04:00:21;10.90;;;3.90;;
68438;SDS011;55421;51.600;5.718;2023-07-31T04:02:48;9.00;;;4.30;;
68438;SDS011;55421;51.600;5.718;2023-07-31T04:05:15;11.50;;;4.30;;
68438;SDS011;55421;51.600;5.718;2023-07-31T04:07:41;11.70;;;3.60;;
68438;SDS011;55421;51.600;5.718;2023-07-31T04:10:08;11.20;;;3.60;;
68438;SDS011;55421;51.600;5.718;2023-07-31T04:12:35;7.30;;;3.40;;
68438;SDS011;55421;51.600;5.718;2023-07-31T04:15:01;10.40;;;3.70;;
68438;SDS011;55421;51.600;5.718;2023-07-31T04:17:28;12.50;;;3.40;;
68438;SDS011;55421;51.600;5.718;2023-07-31T04:19:54;9.50;;;3.50;;
68438;SDS011;55421;51.600;5.718;2023-07-31T04:22:21;12.60;;;4.50;;
68438;SDS011;55421;51.600;5.718;2023-07-31T04:24:47;9.10;;;3.60;;
68438;SDS011;55421;51.600;5.718;2023-07-31T04:27:13;13.50;;;3.30;;
68438;SDS011;55421;51.600;5.718;2023-07-31T04:29:40;10.20;;;3.20;;
68438;SDS011;55421;51.600;5.718;2023-07-31T04:32:08;11.80;;;3.60;;
68438;SDS011;55421;51.600;5.718;2023-07-31T04:34:34;9.40;;;3.80;;
68438;SDS011;55421;51.600;5.718;2023-07-31T04:37:01;14.90;;;4.60;;
68438;SDS011;55421;51.600;5.718;2023-07-31T04:39:27;21.20;;;4.80;;
68438;SDS011;55421;51.600;5.718;2023-07-31T04:41:54;9.20;;;3.30;;
68438;SDS011;55421;51.600;5.718;2023-07-31T04:44:20;12.00;;;3.40;;
68438;SDS011;55421;51.600;5.718;2023-07-31T04:46:47;8.40;;;2.90;;
68438;SDS011;55421;51.600;5.718;2023-07-31T04:49:13;10.00;;;3.20;;
68438;SDS011;55421;51.600;5.718;2023-07-31T04:51:40;14.50;;;3.60;;
68438;SDS011;55421;51.600;5.718;2023-07-31T04:54:06;11.10;;;4.20;;
68438;SDS011;55421;51.600;5.718;2023-07-31T04:56:33;10.20;;;3.50;;
68438;SDS011;55421;51.600;5.718;2023-07-31T04:58:59;11.10;;;4.10;;
68438;SDS011;55421;51.600;5.718;2023-07-31T05:01:26;12.60;;;3.80;;
68438;SDS011;55421;51.600;5.718;2023-07-31T05:03:52;14.70;;;3.60;;
68438;SDS011;55421;51.600;5.718;2023-07-31T05:06:18;9.30;;;3.10;;
68438;SDS011;55421;51.600;5.718;2023-07-31T05:08:46;8.90;;;3.60;;
68438;SDS011;55421;51.600;5.718;2023-07-31T05:11:13;9.60;;;3.30;;
68438;SDS011;55421;51.600;5.718;2023-07-31T05:13:39;8.90;;;3.50;;
68438;SDS011;55421;51.600;5.718;2023-07-31T05:16:06;10.40;;;3.20;;
68438;SDS011;55421;51.600;5.718;2023-07-31T05:18:32;9.40;;;3.10;;
68438;SDS011;55421;51.600;5.718;2023-07-31T05:20:58;9.60;;;3.10;;
68438;SDS011;55421;51.600;5.718;2023-07-31T05:23:25;7.30;;;3.30;;
68438;SDS011;55421;51.600;5.718;2023-07-31T05:25:51;10.90;;;3.60;;
68438;SDS011;55421;51.600;5.718;2023-07-31T05:28:18;9.00;;;3.80;;
68438;SDS011;55421;51.600;5.718;2023-07-31T05:30:44;7.50;;;3.40;;
68438;SDS011;55421;51.600;5.718;2023-07-31T05:33:10;7.40;;;2.90;;
68438;SDS011;55421;51.600;5.718;2023-07-31T05:35:37;8.90;;;3.30;;
68438;SDS011;55421;51.600;5.718;2023-07-31T05:38:04;10.70;;;4.30;;
68438;SDS011;55421;51.600;5.718;2023-07-31T05:40:33;9.10;;;3.70;;
68438;SDS011;55421;51.600;5.718;2023-07-31T05:42:59;8.90;;;3.40;;
68438;SDS011;55421;51.600;5.718;2023-07-31T05:45:26;7.80;;;3.80;;
68438;SDS011;55421;51.600;5.718;2023-07-31T05:47:52;8.90;;;3.60;;
68438;SDS011;55421;51.600;5.718;2023-07-31T05:50:19;8.20;;;3.40;;
68438;SDS011;55421;51.600;5.718;2023-07-31T05:52:45;7.80;;;3.60;;
68438;SDS011;55421;51.600;5.718;2023-07-31T05:55:11;4.20;;;2.80;;
68438;SDS011;55421;51.600;5.718;2023-07-31T05:57:38;6.20;;;3.10;;
68438;SDS011;55421;51.600;5.718;2023-07-31T06:00:05;6.70;;;3.00;;
68438;SDS011;55421;51.600;5.718;2023-07-31T06:02:32;8.40;;;2.70;;
68438;SDS011;55421;51.600;5.718;2023-07-31T06:05:04;4.10;;;2.40;;
68438;SDS011;55421;51.600;5.718;2023-07-31T06:07:32;5.80;;;3.00;;
68438;SDS011;55421;51.600;5.718;2023-07-31T06:09:58;4.60;;;2.40;;
68438;SDS011;55421;51.600;5.718;2023-07-31T06:12:31;4.60;;;2.60;;
68438;SDS011;55421;51.600;5.718;2023-07-31T06:17:29;5.60;;;2.40;;
68438;SDS011;55421;51.600;5.718;2023-07-31T06:19:56;2.90;;;2.00;;
68438;SDS011;55421;51.600;5.718;2023-07-31T06:22:23;4.30;;;2.20;;
68438;SDS011;55421;51.600;5.718;2023-07-31T06:24:49;4.00;;;2.20;;
68438;SDS011;55421;51.600;5.718;2023-07-31T06:27:16;5.60;;;2.10;;
68438;SDS011;55421;51.600;5.718;2023-07-31T06:29:42;2.40;;;1.80;;
68438;SDS011;55421;51.600;5.718;2023-07-31T06:32:09;2.50;;;2.00;;
68438;SDS011;55421;51.600;5.718;2023-07-31T06:34:35;2.60;;;2.20;;
68438;SDS011;55421;51.600;5.718;2023-07-31T06:37:02;1.80;;;1.70;;
68438;SDS011;55421;51.600;5.718;2023-07-31T06:39:28;5.70;;;2.10;;
68438;SDS011;55421;51.600;5.718;2023-07-31T06:41:55;2.60;;;2.30;;
68438;SDS011;55421;51.600;5.718;2023-07-31T06:44:21;2.40;;;2.00;;
68438;SDS011;55421;51.600;5.718;2023-07-31T06:46:48;2.50;;;2.00;;
68438;SDS011;55421;51.600;5.718;2023-07-31T06:49:14;2.70;;;2.20;;
68438;SDS011;55421;51.600;5.718;2023-07-31T06:51:43;2.80;;;1.80;;
68438;SDS011;55421;51.600;5.718;2023-07-31T06:54:10;2.30;;;2.00;;
68438;SDS011;55421;51.600;5.718;2023-07-31T06:56:37;2.30;;;2.10;;
68438;SDS011;55421;51.600;5.718;2023-07-31T06:59:04;2.60;;;2.10;;
68438;SDS011;55421;51.600;5.718;2023-07-31T07:01:30;2.30;;;2.10;;
68438;SDS011;55421;51.600;5.718;2023-07-31T07:03:56;2.00;;;1.90;;
68438;SDS011;55421;51.600;5.718;2023-07-31T07:06:23;2.70;;;2.20;;
68438;SDS011;55421;51.600;5.718;2023-07-31T07:08:49;2.30;;;2.10;;
68438;SDS011;55421;51.600;5.718;2023-07-31T07:11:16;3.40;;;2.30;;
68438;SDS011;55421;51.600;5.718;2023-07-31T07:13:42;2.90;;;2.40;;
68438;SDS011;55421;51.600;5.718;2023-07-31T07:16:08;3.20;;;2.20;;
68438;SDS011;55421;51.600;5.718;2023-07-31T07:18:36;2.40;;;2.20;;
68438;SDS011;55421;51.600;5.718;2023-07-31T07:21:03;3.90;;;2.30;;
68438;SDS011;55421;51.600;5.718;2023-07-31T07:23:29;3.60;;;2.00;;
68438;SDS011;55421;51.600;5.718;2023-07-31T07:25:56;2.10;;;1.90;;
68438;SDS011;55421;51.600;5.718;2023-07-31T07:28:22;2.60;;;2.20;;
68438;SDS011;55421;51.600;5.718;2023-07-31T07:30:52;2.60;;;2.00;;
68438;SDS011;55421;51.600;5.718;2023-07-31T07:33:19;3.10;;;1.80;;
68438;SDS011;55421;51.600;5.718;2023-07-31T07:35:46;2.90;;;1.90;;
68438;SDS011;55421;51.600;5.718;2023-07-31T07:38:14;2.10;;;1.70;;
68438;SDS011;55421;51.600;5.718;2023-07-31T07:40:41;3.30;;;2.30;;
68438;SDS011;55421;51.600;5.718;2023-07-31T07:43:08;4.50;;;1.90;;
68438;SDS011;55421;51.600;5.718;2023-07-31T07:45:34;2.00;;;1.60;;
68438;SDS011;55421;51.600;5.718;2023-07-31T07:48:01;1.70;;;1.60;;
68438;SDS011;55421;51.600;5.718;2023-07-31T07:50:27;1.80;;;1.70;;
68438;SDS011;55421;51.600;5.718;2023-07-31T07:52:54;2.00;;;1.80;;
68438;SDS011;55421;51.600;5.718;2023-07-31T07:55:20;1.80;;;1.70;;
68438;SDS011;55421;51.600;5.718;2023-07-31T07:57:47;3.00;;;1.80;;
68438;SDS011;55421;51.600;5.718;2023-07-31T08:00:16;2.20;;;1.90;;
68438;SDS011;55421;51.600;5.718;2023-07-31T08:02:43;1.90;;;1.80;;
68438;SDS011;55421;51.600;5.718;2023-07-31T08:05:10;3.00;;;1.70;;
68438;SDS011;55421;51.600;5.718;2023-07-31T08:07:36;3.20;;;2.20;;
68438;SDS011;55421;51.600;5.718;2023-07-31T08:10:03;1.70;;;1.50;;
68438;SDS011;55421;51.600;5.718;2023-07-31T08:12:30;5.30;;;2.10;;
68438;SDS011;55421;51.600;5.718;2023-07-31T08:14:56;3.40;;;2.10;;
68438;SDS011;55421;51.600;5.718;2023-07-31T08:17:23;4.30;;;2.10;;
68438;SDS011;55421;51.600;5.718;2023-07-31T08:19:50;2.40;;;2.10;;
68438;SDS011;55421;51.600;5.718;2023-07-31T08:22:16;2.30;;;1.80;;
68438;SDS011;55421;51.600;5.718;2023-07-31T08:24:42;3.50;;;2.20;;
68438;SDS011;55421;51.600;5.718;2023-07-31T08:27:09;2.10;;;1.90;;
68438;SDS011;55421;51.600;5.718;2023-07-31T08:29:36;3.20;;;2.10;;
68438;SDS011;55421;51.600;5.718;2023-07-31T08:32:02;4.10;;;2.90;;
68438;SDS011;55421;51.600;5.718;2023-07-31T08:34:29;4.30;;;2.10;;
68438;SDS011;55421;51.600;5.718;2023-07-31T08:36:55;3.80;;;2.60;;
68438;SDS011;55421;51.600;5.718;2023-07-31T08:39:22;3.50;;;2.40;;
68438;SDS011;55421;51.600;5.718;2023-07-31T08:41:48;5.50;;;2.60;;
68438;SDS011;55421;51.600;5.718;2023-07-31T08:44:15;4.10;;;2.60;;
68438;SDS011;55421;51.600;5.718;2023-07-31T08:46:42;4.40;;;2.50;;
68438;SDS011;55421;51.600;5.718;2023-07-31T08:49:10;3.30;;;2.30;;
68438;SDS011;55421;51.600;5.718;2023-07-31T08:51:37;3.60;;;2.40;;
68438;SDS011;55421;51.600;5.718;2023-07-31T08:54:03;3.70;;;2.40;;
68438;SDS011;55421;51.600;5.718;2023-07-31T08:56:32;4.50;;;2.60;;
68438;SDS011;55421;51.600;5.718;2023-07-31T08:59:02;3.80;;;2.50;;
68438;SDS011;55421;51.600;5.718;2023-07-31T09:01:32;4.00;;;2.40;;
68438;SDS011;55421;51.600;5.718;2023-07-31T09:04:04;2.40;;;2.20;;
68438;SDS011;55421;51.600;5.718;2023-07-31T09:06:31;3.50;;;2.50;;
68438;SDS011;55421;51.600;5.718;2023-07-31T09:08:58;3.60;;;2.20;;
68438;SDS011;55421;51.600;5.718;2023-07-31T09:11:25;3.70;;;2.50;;
68438;SDS011;55421;51.600;5.718;2023-07-31T09:13:52;3.60;;;2.30;;
68438;SDS011;55421;51.600;5.718;2023-07-31T09:16:29;3.70;;;2.60;;
68438;SDS011;55421;51.600;5.718;2023-07-31T09:18:58;4.80;;;2.70;;
68438;SDS011;55421;51.600;5.718;2023-07-31T09:21:28;3.80;;;2.90;;
68438;SDS011;55421;51.600;5.718;2023-07-31T09:23:54;3.30;;;2.70;;
68438;SDS011;55421;51.600;5.718;2023-07-31T09:26:35;4.40;;;2.10;;
68438;SDS011;55421;51.600;5.718;2023-07-31T09:29:07;7.00;;;2.80;;
68438;SDS011;55421;51.600;5.718;2023-07-31T09:31:47;4.60;;;3.20;;
68438;SDS011;55421;51.600;5.718;2023-07-31T09:34:18;4.90;;;2.90;;
68438;SDS011;55421;51.600;5.718;2023-07-31T09:36:49;8.30;;;3.60;;
68438;SDS011;55421;51.600;5.718;2023-07-31T09:39:18;10.90;;;3.50;;
68438;SDS011;55421;51.600;5.718;2023-07-31T09:41:58;3.40;;;3.00;;
68438;SDS011;55421;51.600;5.718;2023-07-31T09:44:41;5.20;;;3.50;;
68438;SDS011;55421;51.600;5.718;2023-07-31T09:47:26;6.00;;;3.40;;
68438;SDS011;55421;51.600;5.718;2023-07-31T09:49:53;8.30;;;3.40;;
68438;SDS011;55421;51.600;5.718;2023-07-31T09:52:20;7.80;;;3.30;;
68438;SDS011;55421;51.600;5.718;2023-07-31T09:54:46;5.90;;;3.00;;
68438;SDS011;55421;51.600;5.718;2023-07-31T09:57:16;5.80;;;3.50;;
68438;SDS011;55421;51.600;5.718;2023-07-31T09:59:55;5.20;;;2.90;;
68438;SDS011;55421;51.600;5.718;2023-07-31T10:02:22;4.50;;;2.80;;
68438;SDS011;55421;51.600;5.718;2023-07-31T10:04:50;5.80;;;3.10;;
68438;SDS011;55421;51.600;5.718;2023-07-31T10:07:18;5.80;;;2.40;;
68438;SDS011;55421;51.600;5.718;2023-07-31T10:09:46;4.20;;;3.20;;
68438;SDS011;55421;51.600;5.718;2023-07-31T10:12:19;5.90;;;3.00;;
68438;SDS011;55421;51.600;5.718;2023-07-31T10:14:52;5.70;;;3.00;;
68438;SDS011;55421;51.600;5.718;2023-07-31T10:17:24;5.50;;;2.90;;
68438;SDS011;55421;51.600;5.718;2023-07-31T10:19:56;4.80;;;2.80;;
68438;SDS011;55421;51.600;5.718;2023-07-31T10:22:25;9.60;;;3.30;;
68438;SDS011;55421;51.600;5.718;2023-07-31T10:24:55;6.20;;;2.80;;
68438;SDS011;55421;51.600;5.718;2023-07-31T10:27:24;3.40;;;2.50;;
68438;SDS011;55421;51.600;5.718;2023-07-31T10:29:53;5.20;;;3.00;;
68438;SDS011;55421;51.600;5.718;2023-07-31T10:32:22;5.60;;;2.60;;
68438;SDS011;55421;51.600;5.718;2023-07-31T10:34:51;4.50;;;2.90;;
68438;SDS011;55421;51.600;5.718;2023-07-31T10:37:22;6.90;;;3.20;;
68438;SDS011;55421;51.600;5.718;2023-07-31T10:39:59;4.80;;;2.70;;
68438;SDS011;55421;51.600;5.718;2023-07-31T10:45:05;3.70;;;2.80;;
68438;SDS011;55421;51.600;5.718;2023-07-31T10:47:38;3.80;;;2.40;;
68438;SDS011;55421;51.600;5.718;2023-07-31T10:50:19;4.60;;;2.90;;
68438;SDS011;55421;51.600;5.718;2023-07-31T10:52:48;4.00;;;2.50;;
68438;SDS011;55421;51.600;5.718;2023-07-31T10:55:30;6.70;;;2.90;;
68438;SDS011;55421;51.600;5.718;2023-07-31T10:58:08;5.50;;;2.80;;
68438;SDS011;55421;51.600;5.718;2023-07-31T11:00:41;5.30;;;2.50;;
68438;SDS011;55421;51.600;5.718;2023-07-31T11:03:10;4.80;;;2.60;;
68438;SDS011;55421;51.600;5.718;2023-07-31T11:08:34;5.60;;;2.50;;
68438;SDS011;55421;51.600;5.718;2023-07-31T11:11:10;3.00;;;2.50;;
68438;SDS011;55421;51.600;5.718;2023-07-31T11:13:46;4.20;;;2.40;;
68438;SDS011;55421;51.600;5.718;2023-07-31T11:16:20;4.20;;;2.30;;
68438;SDS011;55421;51.600;5.718;2023-07-31T11:18:49;4.80;;;2.30;;
68438;SDS011;55421;51.600;5.718;2023-07-31T11:21:19;4.50;;;2.50;;
68438;SDS011;55421;51.600;5.718;2023-07-31T11:23:49;5.50;;;2.70;;
68438;SDS011;55421;51.600;5.718;2023-07-31T11:26:18;4.30;;;2.90;;
68438;SDS011;55421;51.600;5.718;2023-07-31T11:28:48;6.10;;;2.80;;
68438;SDS011;55421;51.600;5.718;2023-07-31T11:31:17;6.20;;;2.70;;
68438;SDS011;55421;51.600;5.718;2023-07-31T11:33:44;7.00;;;2.90;;
68438;SDS011;55421;51.600;5.718;2023-07-31T11:36:19;4.10;;;2.70;;
68438;SDS011;55421;51.600;5.718;2023-07-31T11:38:47;5.10;;;2.80;;
68438;SDS011;55421;51.600;5.718;2023-07-31T11:41:15;4.20;;;2.50;;
68438;SDS011;55421;51.600;5.718;2023-07-31T11:43:42;4.10;;;2.40;;
68438;SDS011;55421;51.600;5.718;2023-07-31T11:46:09;4.60;;;2.60;;
68438;SDS011;55421;51.600;5.718;2023-07-31T11:48:37;5.30;;;2.60;;
68438;SDS011;55421;51.600;5.718;2023-07-31T11:51:06;2.90;;;2.30;;
68438;SDS011;55421;51.600;5.718;2023-07-31T11:56:20;4.10;;;2.60;;
68438;SDS011;55421;51.600;5.718;2023-07-31T11:58:55;4.40;;;2.50;;
68438;SDS011;55421;51.600;5.718;2023-07-31T12:01:28;4.00;;;2.40;;
68438;SDS011;55421;51.600;5.718;2023-07-31T12:03:56;3.40;;;2.20;;
68438;SDS011;55421;51.600;5.718;2023-07-31T12:06:33;4.50;;;2.50;;
68438;SDS011;55421;51.600;5.718;2023-07-31T12:09:04;2.50;;;2.10;;
68438;SDS011;55421;51.600;5.718;2023-07-31T12:11:31;5.10;;;2.30;;
68438;SDS011;55421;51.600;5.718;2023-07-31T12:14:20;2.90;;;2.10;;
68438;SDS011;55421;51.600;5.718;2023-07-31T12:16:59;2.00;;;1.80;;
68438;SDS011;55421;51.600;5.718;2023-07-31T12:19:27;4.00;;;2.40;;
68438;SDS011;55421;51.600;5.718;2023-07-31T12:21:59;3.80;;;2.00;;
68438;SDS011;55421;51.600;5.718;2023-07-31T12:24:26;3.60;;;2.00;;
68438;SDS011;55421;51.600;5.718;2023-07-31T12:26:53;2.60;;;2.10;;
68438;SDS011;55421;51.600;5.718;2023-07-31T12:29:21;5.00;;;2.40;;
68438;SDS011;55421;51.600;5.718;2023-07-31T12:31:47;2.50;;;2.00;;
68438;SDS011;55421;51.600;5.718;2023-07-31T12:34:15;4.10;;;2.30;;
68438;SDS011;55421;51.600;5.718;2023-07-31T12:36:47;3.10;;;2.00;;
68438;SDS011;55421;51.600;5.718;2023-07-31T12:39:16;3.70;;;2.50;;
68438;SDS011;55421;51.600;5.718;2023-07-31T12:41:43;4.40;;;2.50;;
68438;SDS011;55421;51.600;5.718;2023-07-31T12:44:09;4.70;;;2.60;;
68438;SDS011;55421;51.600;5.718;2023-07-31T12:46:36;3.70;;;2.10;;
68438;SDS011;55421;51.600;5.718;2023-07-31T12:49:02;4.40;;;2.40;;
68438;SDS011;55421;51.600;5.718;2023-07-31T12:51:29;3.60;;;2.50;;
68438;SDS011;55421;51.600;5.718;2023-07-31T12:53:55;3.60;;;2.10;;
68438;SDS011;55421;51.600;5.718;2023-07-31T12:56:22;3.70;;;2.50;;
68438;SDS011;55421;51.600;5.718;2023-07-31T12:58:48;3.90;;;2.50;;
68438;SDS011;55421;51.600;5.718;2023-07-31T13:01:14;5.10;;;2.70;;
68438;SDS011;55421;51.600;5.718;2023-07-31T13:03:41;7.40;;;3.30;;
68438;SDS011;55421;51.600;5.718;2023-07-31T13:06:07;4.80;;;2.80;;
68438;SDS011;55421;51.600;5.718;2023-07-31T13:08:34;4.00;;;2.60;;
68438;SDS011;55421;51.600;5.718;2023-07-31T13:11:00;3.10;;;2.80;;
68438;SDS011;55421;51.600;5.718;2023-07-31T13:13:27;4.20;;;2.70;;
68438;SDS011;55421;51.600;5.718;2023-07-31T13:15:53;4.90;;;3.10;;
68438;SDS011;55421;51.600;5.718;2023-07-31T13:18:19;3.30;;;2.60;;
68438;SDS011;55421;51.600;5.718;2023-07-31T13:20:46;6.60;;;2.90;;
68438;SDS011;55421;51.600;5.718;2023-07-31T13:23:12;6.40;;;3.40;;
68438;SDS011;55421;51.600;5.718;2023-07-31T13:25:39;5.20;;;3.30;;
68438;SDS011;55421;51.600;5.718;2023-07-31T13:28:05;3.90;;;3.10;;
68438;SDS011;55421;51.600;5.718;2023-07-31T13:30:33;7.40;;;3.50;;
68438;SDS011;55421;51.600;5.718;2023-07-31T13:32:59;8.30;;;3.60;;
68438;SDS011;55421;51.600;5.718;2023-07-31T13:35:26;6.10;;;3.30;;
68438;SDS011;55421;51.600;5.718;2023-07-31T13:37:52;5.90;;;3.20;;
68438;SDS011;55421;51.600;5.718;2023-07-31T13:40:19;5.80;;;3.40;;
68438;SDS011;55421;51.600;5.718;2023-07-31T13:42:45;6.90;;;3.70;;
68438;SDS011;55421;51.600;5.718;2023-07-31T13:45:13;7.00;;;3.60;;
68438;SDS011;55421;51.600;5.718;2023-07-31T13:47:40;6.50;;;3.60;;
68438;SDS011;55421;51.600;5.718;2023-07-31T13:50:07;9.20;;;3.30;;
68438;SDS011;55421;51.600;5.718;2023-07-31T13:52:33;3.70;;;2.60;;
68438;SDS011;55421;51.600;5.718;2023-07-31T13:55:00;6.30;;;3.20;;
68438;SDS011;55421;51.600;5.718;2023-07-31T13:57:26;5.00;;;3.30;;
68438;SDS011;55421;51.600;5.718;2023-07-31T13:59:53;7.90;;;3.60;;
68438;SDS011;55421;51.600;5.718;2023-07-31T14:02:20;7.60;;;3.70;;
68438;SDS011;55421;51.600;5.718;2023-07-31T14:04:46;6.30;;;3.50;;
68438;SDS011;55421;51.600;5.718;2023-07-31T14:07:12;6.10;;;3.20;;
68438;SDS011;55421;51.600;5.718;2023-07-31T14:09:39;4.80;;;3.20;;
68438;SDS011;55421;51.600;5.718;2023-07-31T14:12:05;7.80;;;3.60;;
68438;SDS011;55421;51.600;5.718;2023-07-31T14:14:32;6.30;;;3.60;;
68438;SDS011;55421;51.600;5.718;2023-07-31T14:17:00;8.60;;;4.00;;
68438;SDS011;55421;51.600;5.718;2023-07-31T14:19:26;6.20;;;3.50;;
68438;SDS011;55421;51.600;5.718;2023-07-31T14:21:53;5.70;;;3.70;;
68438;SDS011;55421;51.600;5.718;2023-07-31T14:24:19;6.50;;;3.50;;
68438;SDS011;55421;51.600;5.718;2023-07-31T14:26:45;8.20;;;4.00;;
68438;SDS011;55421;51.600;5.718;2023-07-31T14:29:12;6.60;;;4.10;;
68438;SDS011;55421;51.600;5.718;2023-07-31T14:31:38;4.40;;;3.30;;
68438;SDS011;55421;51.600;5.718;2023-07-31T14:34:05;7.10;;;3.70;;
68438;SDS011;55421;51.600;5.718;2023-07-31T14:36:31;6.40;;;3.80;;
68438;SDS011;55421;51.600;5.718;2023-07-31T14:38:58;7.20;;;4.10;;
68438;SDS011;55421;51.600;5.718;2023-07-31T14:41:24;6.30;;;3.30;;
68438;SDS011;55421;51.600;5.718;2023-07-31T14:43:50;6.20;;;3.90;;
68438;SDS011;55421;51.600;5.718;2023-07-31T14:46:17;8.50;;;4.10;;
68438;SDS011;55421;51.600;5.718;2023-07-31T14:48:43;7.00;;;4.10;;
68438;SDS011;55421;51.600;5.718;2023-07-31T14:51:10;8.10;;;4.10;;
68438;SDS011;55421;51.600;5.718;2023-07-31T14:53:36;6.20;;;3.90;;
68438;SDS011;55421;51.600;5.718;2023-07-31T14:56:03;6.90;;;4.20;;
68438;SDS011;55421;51.600;5.718;2023-07-31T14:58:29;7.50;;;3.70;;
68438;SDS011;55421;51.600;5.718;2023-07-31T15:00:56;6.00;;;4.10;;
68438;SDS011;55421;51.600;5.718;2023-07-31T15:03:22;7.30;;;3.70;;